Time;durP1;ratioP1;P1;durP2;ratioP2;P2;SDS_P1;SDS_P2;PMS_P1;PMS_P2;Temp;Humidity;BMP_temperature;BMP_pressure;BME280_temperature;BME280_humidity;BME280_pressure;Samples;Min_cycle;Max_cycle;Signal;HPM_P1;HPM_P2
2022/12/10 00:00:20;;;;;;;;;;;15.70;39.90;;;;;;5093214;28;19997;-68
2022/12/10 00:02:46;;;;;;;;;;;15.70;40.00;;;;;;5075411;28;19959;-68
2022/12/10 00:05:11;;;;;;;;;;;15.70;39.90;;;;;;5093259;28;20363;-68
2022/12/10 00:07:37;;;;;;;;;;;15.70;39.90;;;;;;5074501;28;19920;-68
2022/12/10 00:10:02;;;;;;;;;;;15.60;39.90;;;;;;5093155;28;19965;-68
2022/12/10 00:12:28;;;;;;;;;;;15.70;39.90;;;;;;5075004;28;19920;-68
2022/12/10 00:14:53;;;;;;;;;;;15.70;39.90;;;;;;5091747;28;19920;-68
2022/12/10 00:17:19;;;;;;;;;;;15.60;39.80;;;;;;5074845;28;19968;-68
2022/12/10 00:19:44;;;;;;;;;;;15.60;39.90;;;;;;5075077;28;19927;-68
2022/12/10 00:22:10;;;;;;;;;;;15.60;39.90;;;;;;5093340;28;19927;-68
2022/12/10 00:24:36;;;;;;;;;;;15.60;40.00;;;;;;5092843;28;20344;-68
2022/12/10 00:27:01;;;;;;;;;;;15.60;39.90;;;;;;5074541;28;20014;-68
2022/12/10 00:29:27;;;;;;;;;;;15.60;39.90;;;;;;5092810;28;20054;-68
2022/12/10 00:31:52;;;;;;;;;;;15.60;39.90;;;;;;5074989;28;19920;-68
2022/12/10 00:34:18;;;;;;;;;;;15.60;40.00;;;;;;5092779;28;20292;-68
2022/12/10 00:36:45;;;;;;;;;;;15.60;39.90;;;;;;5091566;28;19931;-68
2022/12/10 00:39:12;;;;;;;;;;;15.60;39.90;;;;;;5074546;28;19920;-68
2022/12/10 00:41:37;;;;;;;;;;;15.60;40.00;;;;;;5091308;28;19934;-68
2022/12/10 00:44:03;;;;;;;;;;;15.60;40.00;;;;;;5074649;28;19924;-68
2022/12/10 00:46:29;;;;;;;;;;;15.50;40.00;;;;;;5092588;28;20303;-68
2022/12/10 00:48:54;;;;;;;;;;;15.60;40.00;;;;;;5091379;28;19920;-68
2022/12/10 00:51:21;;;;;;;;;;;15.50;40.00;;;;;;5092529;28;20013;-68
2022/12/10 00:53:48;;;;;;;;;;;15.50;40.00;;;;;;5074226;28;19920;-68
2022/12/10 00:56:15;;;;;;;;;;;15.50;39.90;;;;;;5074319;28;20314;-71
2022/12/10 00:58:41;;;;;;;;;;;15.50;40.00;;;;;;5092317;28;19924;-68
2022/12/10 01:03:50;;;;;;;;;;;15.50;39.90;;;;;;5125722;27;1974239;-68
2022/12/10 01:08:59;;;;;;;;;;;15.50;39.80;;;;;;5089838;28;19912;-68
2022/12/10 01:11:27;;;;;;;;;;;15.50;39.80;;;;;;5088622;28;19920;-68
2022/12/10 01:13:53;;;;;;;;;;;15.50;39.80;;;;;;5088531;28;19928;-68
2022/12/10 01:16:19;;;;;;;;;;;15.50;39.80;;;;;;5089819;28;20165;-68
2022/12/10 01:18:45;;;;;;;;;;;15.50;39.80;;;;;;5088744;28;20331;-68
2022/12/10 01:21:12;;;;;;;;;;;15.50;39.80;;;;;;5088512;28;19969;-68
2022/12/10 01:23:39;;;;;;;;;;;15.50;39.80;;;;;;5088697;28;19920;-68
2022/12/10 01:26:05;;;;;;;;;;;15.50;39.80;;;;;;5088366;28;19924;-71
2022/12/10 01:28:32;;;;;;;;;;;15.50;39.80;;;;;;5089486;28;19924;-68
2022/12/10 01:31:06;;;;;;;;;;;15.50;39.80;;;;;;5105416;28;19921;-68
2022/12/10 01:33:31;;;;;;;;;;;15.50;39.80;;;;;;5088508;28;19973;-68
2022/12/10 01:36:01;;;;;;;;;;;15.50;39.80;;;;;;5105025;28;20329;-68
2022/12/10 01:38:27;;;;;;;;;;;15.50;39.70;;;;;;5089372;28;19920;-68
2022/12/10 01:40:52;;;;;;;;;;;15.40;39.70;;;;;;5088211;28;19928;-68
2022/12/10 01:43:18;;;;;;;;;;;15.50;39.80;;;;;;5088324;28;20291;-69
2022/12/10 01:45:43;;;;;;;;;;;15.40;39.70;;;;;;5088167;28;19924;-69
2022/12/10 01:48:09;;;;;;;;;;;15.40;39.70;;;;;;5087816;28;19935;-68
2022/12/10 01:50:34;;;;;;;;;;;15.40;39.70;;;;;;5087789;28;19990;-68
2022/12/10 01:53:00;;;;;;;;;;;15.40;39.70;;;;;;5087790;28;19999;-68
2022/12/10 01:55:46;;;;;;;;;;;15.40;39.70;;;;;;5088942;28;19927;-69
2022/12/10 01:58:12;;;;;;;;;;;15.40;39.70;;;;;;5087849;28;19927;-72
2022/12/10 02:00:41;;;;;;;;;;;15.30;39.70;;;;;;5088908;28;19920;-69
2022/12/10 02:03:10;;;;;;;;;;;15.40;39.70;;;;;;5088930;28;20011;-69
2022/12/10 02:05:39;;;;;;;;;;;15.40;39.70;;;;;;5087723;28;19920;-69
2022/12/10 02:08:14;;;;;;;;;;;15.40;39.60;;;;;;5087205;28;19928;-68
2022/12/10 02:10:59;;;;;;;;;;;15.30;39.60;;;;;;5087398;28;19924;-68
2022/12/10 02:13:29;;;;;;;;;;;15.30;39.60;;;;;;5087537;28;19924;-71
2022/12/10 02:16:00;;;;;;;;;;;15.30;39.60;;;;;;5087304;28;19924;-69
2022/12/10 02:18:28;;;;;;;;;;;15.30;39.70;;;;;;5084401;28;19924;-68
2022/12/10 02:20:57;;;;;;;;;;;15.30;39.70;;;;;;5075129;28;19928;-69
2022/12/10 02:23:25;;;;;;;;;;;15.30;39.50;;;;;;5073703;28;20387;-69
2022/12/10 02:26:10;;;;;;;;;;;15.30;39.50;;;;;;5074866;28;20395;-69
2022/12/10 02:28:54;;;;;;;;;;;15.30;39.60;;;;;;5073389;28;19925;-69
2022/12/10 02:31:24;;;;;;;;;;;15.30;39.60;;;;;;5073597;28;19921;-68
2022/12/10 02:33:51;;;;;;;;;;;15.20;39.50;;;;;;5075035;28;20067;-69
2022/12/10 02:36:17;;;;;;;;;;;15.30;39.60;;;;;;5073892;28;19927;-69
2022/12/10 02:38:44;;;;;;;;;;;15.30;39.50;;;;;;5075143;28;19971;-69
2022/12/10 02:41:14;;;;;;;;;;;15.30;39.50;;;;;;5074755;28;19956;-69
2022/12/10 02:43:40;;;;;;;;;;;15.30;39.40;;;;;;5073303;28;19932;-69
2022/12/10 02:46:06;;;;;;;;;;;15.30;39.40;;;;;;5073716;28;19924;-69
2022/12/10 02:48:32;;;;;;;;;;;15.30;39.50;;;;;;5074599;28;20280;-71
2022/12/10 02:50:58;;;;;;;;;;;15.30;39.40;;;;;;5074551;28;19920;-69
2022/12/10 02:53:23;;;;;;;;;;;15.30;39.40;;;;;;5074426;28;20430;-69
2022/12/10 02:56:09;;;;;;;;;;;15.30;39.40;;;;;;5074418;28;20022;-69
2022/12/10 03:04:00;;;;;;;;;;;15.20;39.30;;;;;;5090105;28;19912;-69
2022/12/10 03:06:30;;;;;;;;;;;15.20;39.30;;;;;;5088605;28;19920;-68
2022/12/10 03:09:01;;;;;;;;;;;15.20;39.30;;;;;;5105657;28;20292;-70
2022/12/10 03:11:27;;;;;;;;;;;15.30;39.40;;;;;;5088887;28;19920;-69
2022/12/10 03:14:02;;;;;;;;;;;15.10;39.40;;;;;;5089888;28;20299;-69
2022/12/10 03:16:31;;;;;;;;;;;15.20;39.40;;;;;;5089717;28;19920;-69
2022/12/10 03:18:59;;;;;;;;;;;15.20;39.40;;;;;;5089645;28;19920;-69
2022/12/10 03:21:27;;;;;;;;;;;15.20;39.40;;;;;;5088315;28;19920;-71
2022/12/10 03:23:52;;;;;;;;;;;15.20;39.40;;;;;;5089689;28;19956;-69
2022/12/10 03:26:18;;;;;;;;;;;15.20;39.40;;;;;;5088261;28;19966;-69
2022/12/10 03:28:46;;;;;;;;;;;15.20;39.40;;;;;;5088844;28;19920;-69
2022/12/10 03:31:12;;;;;;;;;;;15.40;39.50;;;;;;5089294;28;20379;-69
2022/12/10 03:33:38;;;;;;;;;;;15.20;39.40;;;;;;5088295;28;19920;-69
2022/12/10 03:36:05;;;;;;;;;;;15.10;39.30;;;;;;5089282;28;20290;-68
2022/12/10 03:38:30;;;;;;;;;;;15.10;39.30;;;;;;5087980;28;19999;-69
2022/12/10 03:40:56;;;;;;;;;;;15.10;39.30;;;;;;5089248;28;20062;-69
2022/12/10 03:43:21;;;;;;;;;;;15.10;39.30;;;;;;5087881;28;19931;-69
2022/12/10 03:45:47;;;;;;;;;;;15.10;39.30;;;;;;5089164;28;20342;-69
2022/12/10 03:48:12;;;;;;;;;;;15.10;39.30;;;;;;5088105;28;19946;-68
2022/12/10 03:50:38;;;;;;;;;;;15.10;39.30;;;;;;5087672;28;19920;-69
2022/12/10 03:53:04;;;;;;;;;;;15.10;39.30;;;;;;5088955;28;19951;-69
2022/12/10 03:55:29;;;;;;;;;;;15.10;39.30;;;;;;5087935;28;19924;-69
2022/12/10 03:57:55;;;;;;;;;;;15.10;39.30;;;;;;5089016;28;20267;-69
2022/12/10 04:00:20;;;;;;;;;;;15.10;39.30;;;;;;5087763;28;19927;-69
2022/12/10 04:02:46;;;;;;;;;;;15.10;39.20;;;;;;5087254;28;20011;-69
2022/12/10 04:05:11;;;;;;;;;;;15.00;39.20;;;;;;5088616;28;20030;-69
2022/12/10 04:07:37;;;;;;;;;;;15.10;39.20;;;;;;5088678;28;19927;-69
2022/12/10 04:10:03;;;;;;;;;;;15.00;39.20;;;;;;5087379;28;20015;-68
2022/12/10 04:12:28;;;;;;;;;;;15.10;39.20;;;;;;5087611;28;19952;-68
2022/12/10 04:17:39;;;;;;;;;;;15.00;39.20;;;;;;5074823;28;20380;-69
2022/12/10 04:20:05;;;;;;;;;;;15.00;39.20;;;;;;5073643;28;19928;-69
2022/12/10 04:28:01;;;;;;;;;;;15.00;39.10;;;;;;5074620;28;20016;-70
2022/12/10 04:30:27;;;;;;;;;;;15.00;39.10;;;;;;5074795;28;20015;-69
2022/12/10 04:32:52;;;;;;;;;;;15.00;39.10;;;;;;5073480;28;19960;-69
2022/12/10 04:35:18;;;;;;;;;;;15.00;39.00;;;;;;5074771;28;20124;-69
2022/12/10 04:37:43;;;;;;;;;;;15.00;39.00;;;;;;5073474;28;19924;-68
2022/12/10 04:40:09;;;;;;;;;;;14.90;38.90;;;;;;5072887;28;19928;-69
2022/12/10 04:42:35;;;;;;;;;;;15.00;38.90;;;;;;5073072;28;20147;-69
2022/12/10 04:45:00;;;;;;;;;;;12.10;37.40;;;;;;5074548;28;19929;-69
2022/12/10 04:47:26;;;;;;;;;;;15.00;39.00;;;;;;5073429;28;19925;-69
2022/12/10 04:49:51;;;;;;;;;;;15.00;39.00;;;;;;5073393;28;20023;-69
2022/12/10 04:52:17;;;;;;;;;;;15.00;39.00;;;;;;5073108;28;20331;-71
2022/12/10 04:54:43;;;;;;;;;;;15.00;38.90;;;;;;5073126;28;19969;-69
2022/12/10 04:57:09;;;;;;;;;;;15.00;38.90;;;;;;5073273;28;20027;-69
2022/12/10 04:59:36;;;;;;;;;;;15.00;38.90;;;;;;5073309;28;19921;-69
2022/12/10 05:02:01;;;;;;;;;;;15.00;38.90;;;;;;5072723;28;19928;-69
2022/12/10 05:04:27;;;;;;;;;;;14.90;38.90;;;;;;5072913;28;20397;-69
2022/12/10 05:06:52;;;;;;;;;;;15.00;38.90;;;;;;5072856;28;19920;-69
2022/12/10 05:09:18;;;;;;;;;;;14.90;38.80;;;;;;5073175;28;19991;-71
2022/12/10 05:11:44;;;;;;;;;;;14.90;38.80;;;;;;5074090;28;20356;-68
2022/12/10 05:14:11;;;;;;;;;;;14.90;38.80;;;;;;5072712;28;20342;-68
2022/12/10 05:16:36;;;;;;;;;;;14.90;38.80;;;;;;5072655;28;19920;-69
2022/12/10 05:19:02;;;;;;;;;;;14.90;38.80;;;;;;5072859;28;19943;-69
2022/12/10 05:24:14;;;;;;;;;;;14.90;38.80;;;;;;5072322;28;20016;-69
2022/12/10 05:26:39;;;;;;;;;;;14.90;38.80;;;;;;5071810;28;20019;-69
2022/12/10 05:29:05;;;;;;;;;;;14.90;38.80;;;;;;5073743;28;20365;-69
2022/12/10 05:31:30;;;;;;;;;;;14.90;38.80;;;;;;5073656;28;20438;-71
2022/12/10 05:33:57;;;;;;;;;;;14.90;38.80;;;;;;5072254;28;19921;-69
2022/12/10 05:36:24;;;;;;;;;;;14.90;38.70;;;;;;5073864;28;19927;-69
2022/12/10 05:38:50;;;;;;;;;;;14.90;38.70;;;;;;5072177;28;19939;-69
2022/12/10 05:41:17;;;;;;;;;;;14.90;38.70;;;;;;5072707;28;19927;-69
2022/12/10 05:43:43;;;;;;;;;;;14.90;38.70;;;;;;5073318;28;20011;-69
2022/12/10 05:46:11;;;;;;;;;;;15.20;38.60;;;;;;5072395;28;20315;-68
2022/12/10 05:48:36;;;;;;;;;;;15.50;38.00;;;;;;5072283;28;19928;-68
2022/12/10 05:51:06;;;;;;;;;;;15.90;37.40;;;;;;5071970;28;19920;-68
2022/12/10 05:53:32;;;;;;;;;;;16.20;36.70;;;;;;5072169;28;20261;-69
2022/12/10 05:56:01;;;;;;;;;;;16.70;36.00;;;;;;5072228;28;19924;-68
2022/12/10 05:58:27;;;;;;;;;;;17.10;35.30;;;;;;5072036;28;19921;-68
2022/12/10 06:00:53;;;;;;;;;;;17.60;34.60;;;;;;5071919;28;20420;-69
2022/12/10 06:03:18;;;;;;;;;;;18.20;33.80;;;;;;5071417;28;20023;-68
2022/12/10 06:05:44;;;;;;;;;;;18.80;32.90;;;;;;5071676;28;19921;-68
2022/12/10 06:08:09;;;;;;;;;;;19.60;32.00;;;;;;5072918;28;19921;-68
2022/12/10 06:10:35;;;;;;;;;;;20.20;31.00;;;;;;5072995;28;20315;-68
2022/12/10 06:13:01;;;;;;;;;;;20.90;30.20;;;;;;5072849;28;19927;-68
2022/12/10 06:15:27;;;;;;;;;;;21.50;29.70;;;;;;5072797;28;19966;-71
2022/12/10 06:17:53;;;;;;;;;;;21.90;29.20;;;;;;5071735;28;19920;-68
2022/12/10 06:20:19;;;;;;;;;;;22.20;28.80;;;;;;5072725;28;19920;-69
2022/12/10 06:22:44;;;;;;;;;;;22.40;28.50;;;;;;5072571;28;19931;-68
2022/12/10 06:25:10;;;;;;;;;;;22.50;28.40;;;;;;5072700;28;19927;-69
2022/12/10 06:27:35;;;;;;;;;;;22.50;28.40;;;;;;5071706;28;20287;-69
2022/12/10 06:30:01;;;;;;;;;;;22.30;28.50;;;;;;5071273;28;19924;-68
2022/12/10 06:32:27;;;;;;;;;;;22.00;28.60;;;;;;5071723;28;19920;-70
2022/12/10 06:34:52;;;;;;;;;;;21.80;28.90;;;;;;5072467;28;19921;-69
2022/12/10 06:37:18;;;;;;;;;;;21.50;29.20;;;;;;5070999;28;20019;-69
2022/12/10 06:39:43;;;;;;;;;;;21.20;29.50;;;;;;5072411;28;19925;-69
2022/12/10 06:42:09;;;;;;;;;;;20.80;29.80;;;;;;5071127;28;19960;-69
2022/12/10 06:44:35;;;;;;;;;;;20.50;30.00;;;;;;5071410;28;19970;-69
2022/12/10 06:47:00;;;;;;;;;;;20.30;30.30;;;;;;5071092;28;19999;-69
2022/12/10 06:49:26;;;;;;;;;;;20.00;30.70;;;;;;5072267;28;19926;-68
2022/12/10 06:51:51;;;;;;;;;;;19.70;31.00;;;;;;5072532;28;19920;-69
2022/12/10 06:54:16;;;;;;;;;;;19.50;31.30;;;;;;5072340;28;20421;-69
2022/12/10 06:56:42;;;;;;;;;;;19.30;31.60;;;;;;5070873;28;19969;-69
2022/12/10 06:59:07;;;;;;;;;;;19.00;31.90;;;;;;5070976;28;19921;-69
2022/12/10 07:01:33;;;;;;;;;;;18.80;32.10;;;;;;5071892;28;19928;-70
2022/12/10 07:03:59;;;;;;;;;;;18.60;32.50;;;;;;5070861;28;19977;-69
2022/12/10 07:06:25;;;;;;;;;;;18.40;32.70;;;;;;5070822;28;19927;-69
2022/12/10 07:08:50;;;;;;;;;;;18.40;32.90;;;;;;5070929;28;19921;-68
2022/12/10 07:11:17;;;;;;;;;;;18.20;33.00;;;;;;5071099;28;19927;-69
2022/12/10 07:13:43;;;;;;;;;;;18.20;33.10;;;;;;5072097;28;20384;-69
2022/12/10 07:16:17;;;;;;;;;;;18.10;33.30;;;;;;5071009;28;19928;-69
2022/12/10 07:18:43;;;;;;;;;;;18.00;33.30;;;;;;5072048;28;19931;-69
2022/12/10 07:21:13;;;;;;;;;;;18.00;34.20;;;;;;5071049;28;20307;-69
2022/12/10 07:23:38;;;;;;;;;;;18.00;33.40;;;;;;5071970;28;20253;-69
2022/12/10 07:26:04;;;;;;;;;;;17.90;33.40;;;;;;5070690;28;19924;-69
2022/12/10 07:28:29;;;;;;;;;;;17.90;33.40;;;;;;5070729;28;19970;-69
2022/12/10 07:31:00;;;;;;;;;;;17.90;33.30;;;;;;5070951;28;20097;-69
2022/12/10 07:33:25;;;;;;;;;;;18.00;33.30;;;;;;5070873;28;19920;-69
2022/12/10 07:35:51;;;;;;;;;;;18.00;33.20;;;;;;5070522;28;19973;-69
2022/12/10 07:38:16;;;;;;;;;;;18.00;33.20;;;;;;5070918;28;19970;-69
2022/12/10 07:40:42;;;;;;;;;;;17.90;33.20;;;;;;5070820;28;19924;-69
2022/12/10 07:43:07;;;;;;;;;;;17.90;33.20;;;;;;5071801;28;19920;-69
2022/12/10 07:45:33;;;;;;;;;;;18.00;33.20;;;;;;5070544;28;19932;-69
2022/12/10 07:47:58;;;;;;;;;;;17.90;33.20;;;;;;5070382;28;19935;-71
2022/12/10 07:50:24;;;;;;;;;;;17.90;33.20;;;;;;5073656;28;19945;-69
2022/12/10 07:52:49;;;;;;;;;;;17.80;33.20;;;;;;5074221;28;19920;-69
2022/12/10 07:55:15;;;;;;;;;;;17.80;33.30;;;;;;5074459;28;19920;-69
2022/12/10 07:57:40;;;;;;;;;;;17.70;33.40;;;;;;5075493;28;19927;-69
2022/12/10 08:00:06;;;;;;;;;;;17.70;33.50;;;;;;5075364;28;19927;-69
2022/12/10 08:02:32;;;;;;;;;;;17.60;33.60;;;;;;5073589;28;19925;-69
2022/12/10 08:04:57;;;;;;;;;;;17.50;33.70;;;;;;5075194;28;19920;-70
2022/12/10 08:07:23;;;;;;;;;;;17.50;33.80;;;;;;5074140;28;20331;-69
2022/12/10 08:09:48;;;;;;;;;;;17.40;33.80;;;;;;5073999;28;19939;-69
2022/12/10 08:12:14;;;;;;;;;;;17.30;33.90;;;;;;5075025;28;19947;-69
2022/12/10 08:14:39;;;;;;;;;;;17.20;34.00;;;;;;5075077;28;19950;-69
2022/12/10 08:17:05;;;;;;;;;;;17.20;34.10;;;;;;5073824;28;19974;-69
2022/12/10 08:19:30;;;;;;;;;;;17.10;34.30;;;;;;5073662;28;19958;-68
2022/12/10 08:21:56;;;;;;;;;;;17.00;34.30;;;;;;5073665;28;20019;-69
2022/12/10 08:24:21;;;;;;;;;;;17.00;34.50;;;;;;5073661;28;20007;-69
2022/12/10 08:26:47;;;;;;;;;;;16.90;34.60;;;;;;5073978;28;19920;-69
2022/12/10 08:29:12;;;;;;;;;;;16.80;34.70;;;;;;5073557;28;19920;-69
2022/12/10 08:31:38;;;;;;;;;;;16.70;34.80;;;;;;5074952;28;19920;-69
2022/12/10 08:34:04;;;;;;;;;;;16.60;34.90;;;;;;5073765;28;19927;-69
2022/12/10 08:36:30;;;;;;;;;;;16.50;35.10;;;;;;5074650;28;20333;-69
2022/12/10 08:38:56;;;;;;;;;;;16.40;35.20;;;;;;5073996;28;20003;-69
2022/12/10 08:41:22;;;;;;;;;;;16.30;35.30;;;;;;5073508;28;20033;-69
2022/12/10 08:43:48;;;;;;;;;;;16.30;35.60;;;;;;5073216;28;20276;-71
2022/12/10 08:46:14;;;;;;;;;;;16.20;35.60;;;;;;5073623;28;19977;-69
2022/12/10 08:48:40;;;;;;;;;;;16.10;35.80;;;;;;5073195;28;20318;-69
2022/12/10 08:51:06;;;;;;;;;;;16.00;35.90;;;;;;5073221;28;19920;-69
2022/12/10 08:53:32;;;;;;;;;;;15.90;36.00;;;;;;5073157;28;19920;-69
2022/12/10 08:55:58;;;;;;;;;;;15.90;36.20;;;;;;5074575;28;19927;-69
2022/12/10 08:58:23;;;;;;;;;;;15.80;36.20;;;;;;5074265;28;20010;-69
2022/12/10 09:00:49;;;;;;;;;;;15.80;36.30;;;;;;5073092;28;19970;-72
2022/12/10 09:03:15;;;;;;;;;;;15.70;36.40;;;;;;5072766;28;19925;-69
2022/12/10 09:05:41;;;;;;;;;;;15.70;36.50;;;;;;5074041;28;20360;-69
2022/12/10 09:08:07;;;;;;;;;;;15.60;36.50;;;;;;5074089;28;19920;-69
2022/12/10 09:10:33;;;;;;;;;;;15.60;36.60;;;;;;5074181;28;19921;-68
2022/12/10 09:12:58;;;;;;;;;;;15.50;36.70;;;;;;5073100;28;19920;-69
2022/12/10 09:15:24;;;;;;;;;;;15.40;36.80;;;;;;5072683;28;19990;-69
2022/12/10 09:17:49;;;;;;;;;;;15.40;36.90;;;;;;5072710;28;19935;-69
2022/12/10 09:20:15;;;;;;;;;;;15.40;37.00;;;;;;5072587;28;19920;-69
2022/12/10 09:22:40;;;;;;;;;;;15.30;37.10;;;;;;5072645;28;19925;-69
2022/12/10 09:25:07;;;;;;;;;;;15.00;37.10;;;;;;5073746;28;19920;-69
2022/12/10 09:27:33;;;;;;;;;;;15.10;37.30;;;;;;5074124;28;20253;-69
2022/12/10 09:29:58;;;;;;;;;;;15.10;37.40;;;;;;5073732;28;19928;-69
2022/12/10 09:32:24;;;;;;;;;;;15.10;37.50;;;;;;5072714;28;20042;-69
2022/12/10 09:34:51;;;;;;;;;;;15.00;37.80;;;;;;5073625;28;20372;-69
2022/12/10 09:37:16;;;;;;;;;;;15.00;37.60;;;;;;5073466;28;19927;-69
2022/12/10 09:39:42;;;;;;;;;;;14.90;37.60;;;;;;5072231;28;19928;-71
2022/12/10 09:42:16;;;;;;;;;;;14.90;37.70;;;;;;5072099;28;19924;-69
2022/12/10 09:45:04;;;;;;;;;;;14.90;37.70;;;;;;5055942;28;19921;-71
2022/12/10 09:47:35;;;;;;;;;;;14.90;37.70;;;;;;5073122;28;19928;-69
2022/12/10 09:50:06;;;;;;;;;;;14.90;37.80;;;;;;5072300;28;20307;-69
2022/12/10 09:52:37;;;;;;;;;;;14.90;37.80;;;;;;5072024;28;19921;-70
2022/12/10 09:55:05;;;;;;;;;;;14.90;37.80;;;;;;5072250;28;19928;-69
2022/12/10 09:57:34;;;;;;;;;;;14.90;37.90;;;;;;5073292;28;19921;-69
2022/12/10 10:00:02;;;;;;;;;;;14.80;37.90;;;;;;5073158;28;20073;-69
2022/12/10 10:02:29;;;;;;;;;;;14.80;37.90;;;;;;5072646;28;19932;-70
2022/12/10 10:05:13;;;;;;;;;;;14.80;38.00;;;;;;5073002;28;19921;-69
2022/12/10 10:07:44;;;;;;;;;;;14.90;38.00;;;;;;5072910;28;20384;-69
2022/12/10 10:10:29;;;;;;;;;;;14.80;37.90;;;;;;5072922;28;20019;-68
2022/12/10 10:12:56;;;;;;;;;;;14.80;37.90;;;;;;5072097;28;20382;-68
2022/12/10 10:15:27;;;;;;;;;;;14.80;37.90;;;;;;5071892;28;19943;-71
2022/12/10 10:17:53;;;;;;;;;;;14.80;38.00;;;;;;5072929;28;19928;-69
2022/12/10 10:20:19;;;;;;;;;;;14.80;38.00;;;;;;5072922;28;19924;-69
2022/12/10 10:22:45;;;;;;;;;;;14.70;38.70;;;;;;5071294;28;20384;-68
2022/12/10 10:25:15;;;;;;;;;;;15.20;37.90;;;;;;5071714;28;19920;-69
2022/12/10 10:27:40;;;;;;;;;;;15.80;37.10;;;;;;5071246;28;19928;-68
2022/12/10 10:30:06;;;;;;;;;;;16.40;36.10;;;;;;5072602;28;19920;-68
2022/12/10 10:35:23;;;;;;;;;;;18.30;33.40;;;;;;5110636;27;20265;-68
2022/12/10 10:37:49;;;;;;;;;;;19.40;31.90;;;;;;5110154;28;19985;-68
2022/12/10 10:40:24;;;;;;;;;;;20.20;30.60;;;;;;5108858;28;20395;-68
2022/12/10 10:42:52;;;;;;;;;;;21.00;29.80;;;;;;5110313;28;19943;-69
2022/12/10 10:45:37;;;;;;;;;;;21.70;29.10;;;;;;5109133;28;19924;-69
2022/12/10 10:48:06;;;;;;;;;;;22.20;28.60;;;;;;5108532;28;19920;-72
2022/12/10 10:50:35;;;;;;;;;;;22.60;28.20;;;;;;5109065;28;20352;-69
2022/12/10 10:53:01;;;;;;;;;;;22.80;28.00;;;;;;5143086;27;19924;-69
2022/12/10 10:55:30;;;;;;;;;;;22.80;27.80;;;;;;5108619;28;20268;-68
2022/12/10 10:57:56;;;;;;;;;;;22.70;27.80;;;;;;5109886;28;20277;-68
2022/12/10 11:00:22;;;;;;;;;;;22.50;28.50;;;;;;5108865;28;19920;-68
2022/12/10 11:02:48;;;;;;;;;;;22.30;28.20;;;;;;5108427;28;19950;-69
2022/12/10 11:05:20;;;;;;;;;;;22.00;28.50;;;;;;5108735;28;19920;-68
2022/12/10 11:07:45;;;;;;;;;;;21.60;28.80;;;;;;5109605;28;19970;-68
2022/12/10 11:10:19;;;;;;;;;;;21.30;29.10;;;;;;5110057;28;19920;-69
2022/12/10 11:12:54;;;;;;;;;;;21.00;29.40;;;;;;5108244;28;19945;-69
2022/12/10 11:18:22;;;;;;;;;;;20.30;30.70;;;;;;5089727;28;19913;-69
2022/12/10 11:20:56;;;;;;;;;;;20.00;30.30;;;;;;5088543;28;20011;-70
2022/12/10 11:23:21;;;;;;;;;;;19.70;30.70;;;;;;5088739;28;19970;-69
2022/12/10 11:26:07;;;;;;;;;;;19.40;31.00;;;;;;5089860;28;19924;-69
2022/12/10 11:28:39;;;;;;;;;;;19.20;31.40;;;;;;5088449;28;19920;-69
2022/12/10 11:36:38;;;;;;;;;;;18.50;32.20;;;;;;5110229;27;20360;-69
2022/12/10 11:50:13;;;;;;;;;;;18.00;32.80;;;;;;5110670;27;1859946;-69
2022/12/10 11:55:29;;;;;;;;;;;17.90;33.90;;;;;;5109797;27;19916;-69
2022/12/10 11:58:03;;;;;;;;;;;17.90;34.40;;;;;;5092981;28;20280;-69
2022/12/10 12:00:35;;;;;;;;;;;17.90;34.70;;;;;;5089177;28;20299;-68
2022/12/10 12:03:09;;;;;;;;;;;17.90;34.60;;;;;;5087521;28;20003;-68
2022/12/10 12:08:33;;;;;;;;;;;18.00;34.40;;;;;;5109829;27;19912;-68
2022/12/10 12:11:18;;;;;;;;;;;18.10;34.20;;;;;;5108482;28;19920;-68
2022/12/10 12:14:03;;;;;;;;;;;18.10;34.10;;;;;;5108610;28;20334;-70
2022/12/10 12:16:35;;;;;;;;;;;18.00;34.10;;;;;;5108441;28;19951;-68
2022/12/10 12:19:04;;;;;;;;;;;18.00;34.00;;;;;;5109002;28;20369;-70
2022/12/10 12:21:29;;;;;;;;;;;18.00;34.10;;;;;;5108690;28;19920;-68
2022/12/10 12:26:37;;;;;;;;;;;17.90;34.10;;;;;;5110224;27;19912;-69
2022/12/10 12:29:23;;;;;;;;;;;17.80;34.10;;;;;;5108833;28;19970;-68
2022/12/10 12:31:56;;;;;;;;;;;17.80;34.20;;;;;;5108885;28;20007;-68
2022/12/10 12:34:25;;;;;;;;;;;17.70;34.30;;;;;;5108847;28;19928;-68
2022/12/10 12:36:51;;;;;;;;;;;17.60;34.40;;;;;;5109018;28;19920;-68
2022/12/10 12:42:13;;;;;;;;;;;17.50;34.60;;;;;;5127441;27;1860673;-68
2022/12/10 12:47:30;;;;;;;;;;;17.40;34.80;;;;;;5089782;28;19913;-69
2022/12/10 12:49:57;;;;;;;;;;;17.30;34.80;;;;;;5088607;28;20007;-69
2022/12/10 12:55:16;;;;;;;;;;;17.10;35.00;;;;;;5089976;28;19918;-68
2022/12/10 12:57:48;;;;;;;;;;;17.00;35.80;;;;;;5088958;28;19924;-68
2022/12/10 13:00:18;;;;;;;;;;;17.00;35.20;;;;;;5088503;28;20265;-71
2022/12/10 13:11:21;;;;;;;;;;;16.60;35.60;;;;;;5090421;28;19912;-68
2022/12/10 13:14:07;;;;;;;;;;;16.50;35.80;;;;;;5105410;28;19924;-68
2022/12/10 13:16:36;;;;;;;;;;;16.40;35.90;;;;;;5088608;28;19928;-68
2022/12/10 13:19:22;;;;;;;;;;;16.30;36.10;;;;;;5088444;28;19921;-71
2022/12/10 13:35:18;;;;;;;;;;;15.90;37.00;;;;;;5110245;27;19913;-69
2022/12/10 13:46:27;;;;;;;;;;;15.70;37.30;;;;;;5129479;28;20393;-68
2022/12/10 13:48:53;;;;;;;;;;;15.70;37.40;;;;;;5130551;27;20034;-68
2022/12/10 13:51:25;;;;;;;;;;;15.50;37.50;;;;;;5129610;28;19920;-68
2022/12/10 13:56:41;;;;;;;;;;;15.50;37.50;;;;;;5089875;28;19913;-68
2022/12/10 14:02:23;;;;;;;;;;;15.40;37.80;;;;;;5110250;27;19928;-68
2022/12/10 14:07:31;;;;;;;;;;;15.20;37.90;;;;;;5127657;27;1864048;-68
2022/12/10 14:09:58;;;;;;;;;;;15.20;38.00;;;;;;5174329;27;19919;-68
2022/12/10 14:12:26;;;;;;;;;;;15.20;38.10;;;;;;5174300;27;19919;-68
2022/12/10 14:14:56;;;;;;;;;;;15.20;38.20;;;;;;5174624;27;19940;-68
2022/12/10 14:17:23;;;;;;;;;;;15.10;38.20;;;;;;5174381;27;19925;-68
2022/12/10 14:19:53;;;;;;;;;;;15.10;38.30;;;;;;5174531;27;19926;-68
2022/12/10 14:22:30;;;;;;;;;;;15.20;38.40;;;;;;5174247;27;19959;-68
2022/12/10 14:24:58;;;;;;;;;;;15.10;38.40;;;;;;5174112;27;19925;-68
2022/12/10 14:27:25;;;;;;;;;;;15.10;38.40;;;;;;5192930;27;19930;-68
2022/12/10 14:29:53;;;;;;;;;;;15.00;38.40;;;;;;5174128;27;19918;-68
2022/12/10 14:32:20;;;;;;;;;;;15.00;38.40;;;;;;5174002;27;20047;-68
2022/12/10 14:34:49;;;;;;;;;;;15.00;38.50;;;;;;5173964;27;20430;-68
2022/12/10 14:37:15;;;;;;;;;;;14.90;38.50;;;;;;5174163;27;19923;-68
2022/12/10 14:39:41;;;;;;;;;;;14.90;38.60;;;;;;5173754;27;19919;-68
2022/12/10 14:42:11;;;;;;;;;;;14.90;38.60;;;;;;5174127;27;19963;-68
2022/12/10 14:44:38;;;;;;;;;;;14.90;38.80;;;;;;5192522;27;19933;-68
2022/12/10 14:47:05;;;;;;;;;;;14.90;38.70;;;;;;5173645;27;19923;-68
2022/12/10 14:49:31;;;;;;;;;;;14.90;38.70;;;;;;5173668;27;19925;-69
2022/12/10 14:51:56;;;;;;;;;;;14.90;38.70;;;;;;5173839;27;19919;-68
2022/12/10 14:54:28;;;;;;;;;;;14.80;38.60;;;;;;5173482;27;19926;-69
2022/12/10 14:56:55;;;;;;;;;;;14.90;38.70;;;;;;5173377;27;19918;-68
2022/12/10 14:59:23;;;;;;;;;;;14.80;38.70;;;;;;5192364;27;20325;-68
2022/12/10 15:01:51;;;;;;;;;;;14.90;38.70;;;;;;5192139;27;19919;-68
2022/12/10 15:04:17;;;;;;;;;;;14.90;38.70;;;;;;5173333;27;19958;-70
2022/12/10 15:06:44;;;;;;;;;;;14.90;38.70;;;;;;5173096;27;19922;-68
2022/12/10 15:09:14;;;;;;;;;;;15.00;38.70;;;;;;5173746;27;19925;-68
2022/12/10 15:11:39;;;;;;;;;;;14.90;38.70;;;;;;5173384;27;19918;-68
2022/12/10 15:14:05;;;;;;;;;;;14.90;38.70;;;;;;5173154;27;20285;-68
2022/12/10 15:16:38;;;;;;;;;;;14.80;38.60;;;;;;5173108;27;19979;-70
2022/12/10 15:19:24;;;;;;;;;;;14.80;38.70;;;;;;5158771;27;20115;-70
2022/12/10 15:21:51;;;;;;;;;;;14.80;38.70;;;;;;5177528;27;19941;-69
2022/12/10 15:24:20;;;;;;;;;;;14.80;38.70;;;;;;5159349;27;19919;-69
2022/12/10 15:26:47;;;;;;;;;;;15.30;38.50;;;;;;5157969;27;19923;-68
2022/12/10 15:29:29;;;;;;;;;;;15.60;37.70;;;;;;5167586;27;19963;-70
2022/12/10 15:31:57;;;;;;;;;;;16.00;37.00;;;;;;5149037;27;19923;-70
2022/12/10 15:34:25;;;;;;;;;;;16.60;36.20;;;;;;5156681;27;20286;-70
2022/12/10 15:36:52;;;;;;;;;;;17.20;35.40;;;;;;5156777;27;19919;-70
2022/12/10 15:39:23;;;;;;;;;;;17.90;34.40;;;;;;5162101;27;19971;-70
2022/12/10 15:41:50;;;;;;;;;;;18.60;33.40;;;;;;5156522;27;20336;-67
2022/12/10 15:49:39;;;;;;;;;;;21.00;30.40;;;;;;5089942;28;19919;-69
2022/12/10 15:52:04;;;;;;;;;;;21.60;29.70;;;;;;5088252;28;19932;-69
2022/12/10 15:54:35;;;;;;;;;;;22.10;29.20;;;;;;5088636;28;19955;-69
2022/12/10 15:57:17;;;;;;;;;;;22.40;28.80;;;;;;5088520;28;19921;-69
2022/12/10 15:59:44;;;;;;;;;;;22.60;28.50;;;;;;5088731;28;19924;-69
2022/12/10 16:02:29;;;;;;;;;;;22.60;28.40;;;;;;5088446;28;20400;-69
2022/12/10 16:04:55;;;;;;;;;;;22.50;28.50;;;;;;5105416;28;19921;-69